createdAt,value
2018-03-29T00:02:00.224Z,7.50
2018-03-29T00:04:34.473Z,7.20
2018-03-29T00:07:09.563Z,7.80
2018-03-29T00:09:44.181Z,7.63
2018-03-29T00:12:18.634Z,8.50
2018-03-29T00:14:53.790Z,10.00
2018-03-29T00:17:28.228Z,8.93
2018-03-29T00:20:02.457Z,9.50
2018-03-29T00:22:37.603Z,10.00
2018-03-29T00:25:11.797Z,10.33
2018-03-29T00:27:46.444Z,10.10
2018-03-29T00:30:21.412Z,9.80
2018-03-29T00:32:56.591Z,11.57
2018-03-29T00:35:30.812Z,10.07
2018-03-29T00:38:05.092Z,10.93
2018-03-29T00:40:39.492Z,11.50
2018-03-29T00:43:13.864Z,10.70
2018-03-29T00:45:48.179Z,11.50
2018-03-29T00:48:22.498Z,11.90
2018-03-29T00:50:56.801Z,13.40
2018-03-29T00:53:43.168Z,12.30
2018-03-29T00:56:17.390Z,13.83
2018-03-29T00:58:51.963Z,14.50
2018-03-29T01:01:27.007Z,13.50
2018-03-29T01:04:01.311Z,13.80
2018-03-29T01:06:36.704Z,13.90
2018-03-29T01:09:12.744Z,13.50
2018-03-29T01:11:47.338Z,14.13
2018-03-29T01:14:21.584Z,13.13
2018-03-29T01:16:58.086Z,13.90
2018-03-29T01:19:33.121Z,13.20
2018-03-29T01:22:08.353Z,13.43
2018-03-29T01:24:42.650Z,13.23
2018-03-29T01:27:17.062Z,13.40
2018-03-29T01:29:51.276Z,13.50
2018-03-29T01:32:38.243Z,15.10
2018-03-29T01:35:13.467Z,14.23
2018-03-29T01:37:48.639Z,13.00
2018-03-29T01:40:22.944Z,13.87
2018-03-29T01:42:57.079Z,13.20
2018-03-29T01:45:32.113Z,12.23
2018-03-29T01:48:06.735Z,14.17
2018-03-29T01:50:41.131Z,13.43
2018-03-29T01:53:15.336Z,12.97
2018-03-29T01:55:49.607Z,13.10
2018-03-29T01:58:24.134Z,13.80
2018-03-29T02:00:58.592Z,13.17
2018-03-29T02:03:32.752Z,15.43
2018-03-29T02:06:07.141Z,14.07
2018-03-29T02:08:42.321Z,13.90
2018-03-29T02:11:16.569Z,13.50
2018-03-29T02:13:50.853Z,13.23
2018-03-29T02:16:25.218Z,12.67
2018-03-29T02:18:59.532Z,13.37
2018-03-29T02:21:34.076Z,13.90
2018-03-29T02:24:08.343Z,13.50
2018-03-29T02:26:42.669Z,11.47
2018-03-29T02:29:16.856Z,13.63
2018-03-29T02:31:51.070Z,14.30
2018-03-29T02:34:26.275Z,12.53
2018-03-29T02:39:39.131Z,13.43
2018-03-29T02:42:13.403Z,12.90
2018-03-29T02:44:48.161Z,12.40
2018-03-29T02:47:22.424Z,12.27
2018-03-29T02:49:56.792Z,13.60
2018-03-29T02:52:31.431Z,10.87
2018-03-29T02:55:06.607Z,12.17
2018-03-29T02:57:40.937Z,11.63
2018-03-29T03:00:15.557Z,11.60
2018-03-29T03:02:50.736Z,11.37
2018-03-29T03:05:25.712Z,11.23
2018-03-29T03:08:00.014Z,12.57
2018-03-29T03:10:35.245Z,11.40
2018-03-29T03:13:09.444Z,11.60
2018-03-29T03:15:43.812Z,11.80
2018-03-29T03:18:18.349Z,10.00
2018-03-29T03:20:52.720Z,11.10
2018-03-29T03:23:27.739Z,10.03
2018-03-29T03:26:02.006Z,8.80
2018-03-29T03:28:36.992Z,9.30
2018-03-29T03:31:11.581Z,8.87
2018-03-29T03:33:46.802Z,8.97
2018-03-29T03:36:21.141Z,9.60
2018-03-29T03:38:55.340Z,9.90
2018-03-29T03:41:29.859Z,9.20
2018-03-29T03:44:04.928Z,10.53
2018-03-29T03:46:39.280Z,9.70
2018-03-29T03:49:13.397Z,9.70
2018-03-29T03:51:48.017Z,10.13
2018-03-29T03:54:22.322Z,8.80
2018-03-29T03:56:56.460Z,9.10
2018-03-29T03:59:30.552Z,10.70
2018-03-29T04:02:04.963Z,10.07
2018-03-29T04:04:39.211Z,12.33
2018-03-29T04:07:13.762Z,12.50
2018-03-29T04:09:47.915Z,13.60
2018-03-29T04:12:22.203Z,13.93
2018-03-29T04:14:56.551Z,14.53
2018-03-29T04:17:30.743Z,13.90
2018-03-29T04:20:05.152Z,13.33
2018-03-29T04:22:39.327Z,15.83
2018-03-29T04:25:13.882Z,15.23
2018-03-29T04:27:48.326Z,14.87
2018-03-29T04:30:22.592Z,15.37
2018-03-29T04:32:56.891Z,15.70
2018-03-29T04:35:31.036Z,15.27
2018-03-29T04:38:05.230Z,14.90
2018-03-29T04:40:39.536Z,15.60
2018-03-29T04:43:13.704Z,14.23
2018-03-29T04:45:47.880Z,13.07
2018-03-29T04:48:22.038Z,15.00
2018-03-29T04:50:56.312Z,14.53
2018-03-29T04:53:30.608Z,15.20
2018-03-29T04:56:05.003Z,14.63
2018-03-29T04:58:39.155Z,13.00
2018-03-29T05:01:13.674Z,15.07
2018-03-29T05:03:48.830Z,14.37
2018-03-29T05:06:23.236Z,15.07
2018-03-29T05:08:57.620Z,14.80
2018-03-29T05:11:32.093Z,14.97
2018-03-29T05:14:06.447Z,14.57
2018-03-29T05:16:41.030Z,14.10
2018-03-29T05:19:16.069Z,14.50
2018-03-29T05:28:41.231Z,12.80
2018-03-29T05:31:16.192Z,14.03
2018-03-29T05:33:50.403Z,14.47
2018-03-29T05:36:24.672Z,16.20
2018-03-29T05:38:59.039Z,13.53
2018-03-29T05:41:34.188Z,14.00
2018-03-29T05:44:08.751Z,15.90
2018-03-29T05:46:42.944Z,14.30
2018-03-29T05:49:17.211Z,14.60
2018-03-29T05:51:52.304Z,15.50
2018-03-29T05:54:27.468Z,16.23
2018-03-29T05:57:01.652Z,14.80
2018-03-29T05:59:35.938Z,13.47
2018-03-29T06:02:10.256Z,14.47
2018-03-29T06:04:45.405Z,13.57
2018-03-29T06:07:19.615Z,15.27
2018-03-29T06:09:53.842Z,15.03
2018-03-29T06:12:28.154Z,15.27
2018-03-29T06:15:20.562Z,15.30
2018-03-29T06:18:00.417Z,15.43
2018-03-29T06:20:34.731Z,15.43
2018-03-29T06:23:09.174Z,14.57
2018-03-29T06:25:43.263Z,15.63
2018-03-29T06:28:17.629Z,15.40
2018-03-29T06:30:52.035Z,14.17
2018-03-29T06:33:26.476Z,15.70
2018-03-29T06:36:00.791Z,15.20
2018-03-29T06:38:35.259Z,15.27
2018-03-29T06:41:09.425Z,16.00
2018-03-29T06:43:43.657Z,16.00
2018-03-29T06:46:17.791Z,16.83
2018-03-29T06:48:51.994Z,14.60
2018-03-29T06:51:27.093Z,15.87
2018-03-29T06:54:01.376Z,16.93
2018-03-29T06:56:35.956Z,15.50
2018-03-29T06:59:10.127Z,16.13
2018-03-29T07:01:44.444Z,16.23
2018-03-29T07:04:18.754Z,15.00
2018-03-29T07:06:53.043Z,16.67
2018-03-29T07:09:28.070Z,15.00
2018-03-29T07:12:02.416Z,16.43
2018-03-29T07:14:36.646Z,15.53
2018-03-29T07:17:10.989Z,25.77
2018-03-29T07:19:45.171Z,16.00
2018-03-29T07:22:19.459Z,16.93
2018-03-29T07:24:54.398Z,17.67
2018-03-29T07:27:28.654Z,17.10
2018-03-29T07:30:02.799Z,17.17
2018-03-29T07:32:37.735Z,15.40
2018-03-29T07:35:11.920Z,16.73
2018-03-29T07:37:46.131Z,17.37
2018-03-29T07:40:20.380Z,16.97
2018-03-29T07:42:54.758Z,18.67
2018-03-29T07:45:29.380Z,18.83
2018-03-29T07:48:03.924Z,16.70
2018-03-29T07:50:38.442Z,19.13
2018-03-29T07:53:13.415Z,17.57
2018-03-29T07:55:47.624Z,18.50
2018-03-29T07:58:22.154Z,18.70
2018-03-29T08:00:56.432Z,18.47
2018-03-29T08:03:31.650Z,19.50
2018-03-29T08:06:05.972Z,19.20
2018-03-29T08:08:41.157Z,19.50
2018-03-29T08:11:15.387Z,20.83
2018-03-29T08:13:50.828Z,20.70
2018-03-29T08:16:25.727Z,20.50
2018-03-29T08:19:00.684Z,20.37
2018-03-29T08:21:34.851Z,22.20
2018-03-29T08:24:09.179Z,19.80
2018-03-29T08:26:44.309Z,19.10
2018-03-29T08:29:18.570Z,18.57
2018-03-29T08:31:52.761Z,19.10
2018-03-29T08:34:27.024Z,15.37
2018-03-29T08:37:01.275Z,14.07
2018-03-29T08:39:35.745Z,12.77
2018-03-29T08:42:09.956Z,10.33
2018-03-29T08:44:44.266Z,10.70
2018-03-29T08:47:18.830Z,9.63
2018-03-29T08:49:53.472Z,10.70
2018-03-29T08:52:27.616Z,9.23
2018-03-29T08:55:01.787Z,10.00
2018-03-29T08:57:36.028Z,9.57
2018-03-29T09:00:10.229Z,10.63
2018-03-29T09:02:44.417Z,10.93
2018-03-29T09:05:18.879Z,12.30
2018-03-29T09:07:53.095Z,12.87
2018-03-29T09:10:27.503Z,13.80
2018-03-29T09:13:01.945Z,14.43
2018-03-29T09:15:36.360Z,14.50
2018-03-29T09:18:10.663Z,14.77
2018-03-29T09:20:45.039Z,16.23
2018-03-29T09:23:19.210Z,16.17
2018-03-29T09:25:53.497Z,17.90
2018-03-29T09:28:29.264Z,17.20
2018-03-29T09:31:03.487Z,17.40
2018-03-29T09:33:37.664Z,20.07
2018-03-29T09:36:12.041Z,18.93
2018-03-29T09:38:46.222Z,18.00
2018-03-29T09:41:20.548Z,20.30
2018-03-29T09:43:55.056Z,19.80
2018-03-29T09:46:29.315Z,19.13
2018-03-29T09:49:03.764Z,20.33
2018-03-29T09:51:38.881Z,19.60
2018-03-29T09:54:13.171Z,21.00
2018-03-29T09:56:48.317Z,20.60
2018-03-29T09:59:22.523Z,22.63
2018-03-29T10:01:56.786Z,21.90
2018-03-29T10:04:31.069Z,20.80
2018-03-29T10:07:11.742Z,20.97
2018-03-29T10:09:45.835Z,22.53
2018-03-29T10:12:19.977Z,22.40
2018-03-29T10:14:54.405Z,21.97
2018-03-29T10:17:28.882Z,21.17
2018-03-29T10:20:03.334Z,21.73
2018-03-29T10:22:37.781Z,20.43
2018-03-29T10:25:12.169Z,22.13
2018-03-29T10:27:46.511Z,20.30
2018-03-29T10:30:20.847Z,21.20
2018-03-29T10:32:55.096Z,21.33
2018-03-29T10:35:29.444Z,21.60
2018-03-29T10:38:03.988Z,21.67
2018-03-29T10:40:38.223Z,22.53
2018-03-29T10:43:12.368Z,21.93
2018-03-29T10:45:46.670Z,22.70
2018-03-29T10:48:20.980Z,23.53
2018-03-29T10:50:55.124Z,21.27
2018-03-29T10:53:29.719Z,21.57
2018-03-29T10:56:04.013Z,22.07
2018-03-29T10:58:38.297Z,21.20
2018-03-29T11:01:12.395Z,23.30
2018-03-29T11:03:46.672Z,23.33
2018-03-29T11:06:20.993Z,21.20
2018-03-29T11:08:55.388Z,24.30
2018-03-29T11:11:29.535Z,27.10
2018-03-29T11:14:04.471Z,22.47
2018-03-29T11:16:38.932Z,20.83
2018-03-29T11:19:13.172Z,22.07
2018-03-29T11:21:47.528Z,22.20
2018-03-29T11:24:22.836Z,20.67
2018-03-29T11:26:57.098Z,19.50
2018-03-29T11:29:31.669Z,21.13
2018-03-29T11:32:06.196Z,21.87
2018-03-29T11:34:40.682Z,20.97
2018-03-29T11:37:15.884Z,21.17
2018-03-29T11:39:50.180Z,19.10
2018-03-29T11:42:24.693Z,18.73
2018-03-29T11:44:59.915Z,18.40
2018-03-29T11:47:34.185Z,19.00
2018-03-29T11:50:08.441Z,16.93
2018-03-29T11:52:42.576Z,15.50
2018-03-29T11:55:17.984Z,12.50
2018-03-29T11:57:52.281Z,13.30
2018-03-29T12:00:27.436Z,12.63
2018-03-29T12:03:01.765Z,13.67
2018-03-29T12:05:35.915Z,13.93
2018-03-29T12:08:10.230Z,13.67
2018-03-29T12:10:44.551Z,14.43
2018-03-29T12:13:19.116Z,13.63
2018-03-29T12:15:53.489Z,13.43
2018-03-29T12:18:28.754Z,12.93
2018-03-29T12:21:03.187Z,12.10
2018-03-29T12:23:37.505Z,12.57
2018-03-29T12:26:12.808Z,13.27
2018-03-29T12:28:47.891Z,11.77
2018-03-29T12:31:22.283Z,12.07
2018-03-29T12:33:57.312Z,11.90
2018-03-29T12:36:32.377Z,13.13
2018-03-29T12:39:08.551Z,13.03
2018-03-29T12:41:43.676Z,11.27
2018-03-29T12:44:17.864Z,10.50
2018-03-29T12:46:52.017Z,11.67
2018-03-29T12:49:26.239Z,12.73
2018-03-29T12:52:01.174Z,12.67
2018-03-29T12:54:47.432Z,11.97
2018-03-29T13:31:07.362Z,8.00
2018-03-29T13:33:41.797Z,8.13
2018-03-29T13:36:16.298Z,8.50
2018-03-29T13:38:50.767Z,8.80
2018-03-29T13:41:25.678Z,7.10
2018-03-29T13:44:00.889Z,7.73
2018-03-29T13:46:35.281Z,5.30
2018-03-29T13:49:10.338Z,3.80
2018-03-29T13:51:45.253Z,2.70
2018-03-29T13:54:19.837Z,3.03
2018-03-29T13:56:54.568Z,2.63
2018-03-29T13:59:28.916Z,2.70
2018-03-29T14:02:03.137Z,3.60
2018-03-29T14:04:37.528Z,5.43
2018-03-29T14:07:12.415Z,4.60
2018-03-29T14:09:46.723Z,4.97
2018-03-29T14:12:21.046Z,6.00
2018-03-29T14:14:55.446Z,4.97
2018-03-29T14:17:29.763Z,4.77
2018-03-29T14:20:04.003Z,5.30
2018-03-29T14:22:38.346Z,5.90
2018-03-29T14:25:12.817Z,5.30
2018-03-29T14:27:47.057Z,5.33
2018-03-29T14:30:21.356Z,6.90
2018-03-29T14:32:55.533Z,5.90
2018-03-29T14:35:30.985Z,5.37
2018-03-29T14:38:05.746Z,5.80
2018-03-29T14:40:40.009Z,6.00
2018-03-29T14:43:14.973Z,5.63
2018-03-29T14:45:49.158Z,6.30
2018-03-29T14:48:23.415Z,5.50
2018-03-29T14:50:58.072Z,5.47
2018-03-29T14:53:32.635Z,5.43
2018-03-29T14:56:06.901Z,6.20
2018-03-29T14:58:41.981Z,6.27
2018-03-29T15:01:16.322Z,6.10
2018-03-29T15:03:50.560Z,6.00
2018-03-29T15:06:24.885Z,6.10
2018-03-29T15:08:59.429Z,6.13
2018-03-29T15:11:33.965Z,5.63
2018-03-29T15:14:08.218Z,6.80
2018-03-29T15:16:42.579Z,6.40
2018-03-29T15:19:17.718Z,7.47
2018-03-29T15:21:52.155Z,7.10
2018-03-29T15:24:27.274Z,8.20
2018-03-29T15:27:01.862Z,8.27
2018-03-29T15:29:36.800Z,6.50
2018-03-29T15:32:11.119Z,7.80
2018-03-29T15:34:45.880Z,7.10
2018-03-29T15:37:20.461Z,7.40
2018-03-29T15:39:57.664Z,7.30
2018-03-29T15:42:32.627Z,7.23
2018-03-29T15:45:08.108Z,6.80
2018-03-29T15:47:42.618Z,6.83
2018-03-29T15:50:16.881Z,7.40
2018-03-29T15:52:52.364Z,8.93
2018-03-29T15:55:27.737Z,8.73
2018-03-29T15:58:01.981Z,7.77
2018-03-29T16:00:38.087Z,7.97
2018-03-29T16:03:12.808Z,7.10
2018-03-29T16:05:48.018Z,7.30
2018-03-29T16:08:23.857Z,8.47
2018-03-29T16:11:04.726Z,8.43
2018-03-29T16:13:46.042Z,9.07
2018-03-29T16:16:30.947Z,9.10
2018-03-29T16:19:08.576Z,8.53
2018-03-29T16:21:46.307Z,9.27
2018-03-29T16:24:22.120Z,9.30
2018-03-29T16:29:40.188Z,9.47
2018-03-29T16:32:20.373Z,9.47
2018-03-29T16:35:02.312Z,8.40
2018-03-29T16:37:38.050Z,8.83
2018-03-29T16:40:13.103Z,9.60
2018-03-29T16:42:49.388Z,8.37
2018-03-29T16:45:24.015Z,8.23
2018-03-29T16:48:03.958Z,8.60
2018-03-29T16:50:57.293Z,8.27
2018-03-29T16:53:44.280Z,7.70
2018-03-29T17:34:36.107Z,9.90
2018-03-29T17:37:14.191Z,10.93
2018-03-29T17:40:02.040Z,10.47
2018-03-29T17:42:39.790Z,10.77
2018-03-29T17:45:20.626Z,10.83
2018-03-29T17:47:56.263Z,10.00
2018-03-29T17:50:30.825Z,10.10
2018-03-29T17:53:05.758Z,10.50
2018-03-29T17:55:40.916Z,10.33
2018-03-29T17:58:16.237Z,10.10
2018-03-29T18:00:51.383Z,11.17
2018-03-29T18:03:25.885Z,10.73
2018-03-29T18:06:01.789Z,11.87
2018-03-29T18:08:38.771Z,11.90
2018-03-29T18:11:16.069Z,13.87
2018-03-29T18:22:28.778Z,12.10
2018-03-29T18:25:04.040Z,12.67
2018-03-29T18:31:03.267Z,14.93
2018-03-29T18:33:40.465Z,12.50
2018-03-29T18:36:15.934Z,11.70
2018-03-29T18:38:52.282Z,10.63
2018-03-29T18:41:31.325Z,11.10
2018-03-29T18:44:11.787Z,12.33
2018-03-29T18:47:01.413Z,11.63
2018-03-29T18:49:41.895Z,11.43
2018-03-29T18:52:18.781Z,11.27
2018-03-29T18:57:42.210Z,11.93
2018-03-29T19:00:18.536Z,12.37
2018-03-29T19:02:54.412Z,12.70
2018-03-29T19:05:29.641Z,12.70
2018-03-29T19:08:05.276Z,11.50
2018-03-29T19:10:47.291Z,13.30
2018-03-29T19:13:22.937Z,15.70
2018-03-29T19:21:58.947Z,14.00
2018-03-29T19:24:35.252Z,14.03
2018-03-29T19:27:10.567Z,17.10
2018-03-29T19:29:45.263Z,15.40
2018-03-29T19:32:23.809Z,16.03
2018-03-29T19:35:00.650Z,14.17
2018-03-29T19:37:35.896Z,14.00
2018-03-29T19:40:13.215Z,14.27
2018-03-29T19:42:55.008Z,13.57
2018-03-29T19:45:34.558Z,13.50
2018-03-29T19:48:17.092Z,14.10
2018-03-29T19:51:09.147Z,13.47
2018-03-29T19:56:30.124Z,13.90
2018-03-29T19:59:12.426Z,14.77
2018-03-29T20:01:52.343Z,15.80
2018-03-29T20:07:30.311Z,16.40
2018-03-29T20:10:06.058Z,16.60
2018-03-29T20:12:41.983Z,21.60
2018-03-29T20:15:21.145Z,15.80
2018-03-29T20:18:06.541Z,28.20
2018-03-29T20:20:48.924Z,14.50
2018-03-29T20:23:29.196Z,14.20
2018-03-29T20:26:04.392Z,14.00
2018-03-29T20:28:39.818Z,14.60
2018-03-29T20:31:15.388Z,14.43
2018-03-29T20:33:54.564Z,13.53
2018-03-29T20:36:31.217Z,15.47
2018-03-29T20:39:08.273Z,16.63
2018-03-29T20:41:48.304Z,14.77
2018-03-29T20:44:24.137Z,13.73
2018-03-29T20:47:01.625Z,13.90
2018-03-29T20:52:41.177Z,14.73
2018-03-29T20:55:16.922Z,15.83
2018-03-29T21:01:08.096Z,14.90
2018-03-29T21:03:43.991Z,14.37
2018-03-29T21:06:37.106Z,15.90
2018-03-29T21:09:14.539Z,16.43
2018-03-29T21:12:00.948Z,14.67
2018-03-29T21:14:40.876Z,15.13
2018-03-29T21:17:21.975Z,14.80
2018-03-29T21:20:05.332Z,15.10
2018-03-29T21:22:41.426Z,15.40
2018-03-29T21:25:34.474Z,15.30
2018-03-29T21:28:15.002Z,15.20
2018-03-29T21:30:50.853Z,13.60
2018-03-29T21:33:25.673Z,15.67
2018-03-29T21:36:04.791Z,13.73
2018-03-29T21:38:53.930Z,13.20
2018-03-29T21:44:52.286Z,17.80
2018-03-29T22:02:47.793Z,12.70
2018-03-29T22:08:27.452Z,12.83
2018-03-29T22:11:01.871Z,13.87
2018-03-29T22:13:37.373Z,14.03
2018-03-29T22:18:56.752Z,12.20
2018-03-29T22:21:31.369Z,12.07
2018-03-29T22:24:06.294Z,12.87
2018-03-29T22:26:41.150Z,12.93
2018-03-29T22:29:15.607Z,13.47
2018-03-29T22:31:49.843Z,12.87
2018-03-29T22:34:24.171Z,12.80
2018-03-29T22:37:05.666Z,12.77
2018-03-29T22:39:40.217Z,12.77
2018-03-29T22:45:08.583Z,11.70
2018-03-29T22:50:51.404Z,12.13
2018-03-29T22:53:31.966Z,12.87
2018-03-29T22:56:07.927Z,13.80
2018-03-29T22:58:42.292Z,13.00
2018-03-29T23:01:17.605Z,12.50
2018-03-29T23:04:01.824Z,11.83
2018-03-29T23:06:41.707Z,12.93
2018-03-29T23:09:17.316Z,13.30
2018-03-29T23:11:52.181Z,11.90
2018-03-29T23:14:43.068Z,12.03
2018-03-29T23:17:17.551Z,12.43
2018-03-29T23:19:51.868Z,14.10
2018-03-29T23:22:28.637Z,11.30
2018-03-29T23:25:02.832Z,12.63
2018-03-29T23:27:38.193Z,11.13
2018-03-29T23:30:13.447Z,12.50
2018-03-29T23:32:48.783Z,10.70
2018-03-29T23:35:44.017Z,11.90
2018-03-29T23:38:20.294Z,10.70
2018-03-29T23:40:55.838Z,10.63
2018-03-29T23:43:30.628Z,10.30
2018-03-29T23:46:05.460Z,11.50
2018-03-29T23:48:39.841Z,9.43
2018-03-29T23:51:14.048Z,9.50
2018-03-29T23:53:48.486Z,9.40
2018-03-29T23:56:23.677Z,10.50
2018-03-29T23:58:59.446Z,11.10
